Weather at Midden-Zeeland Airport

Public forecast

Using degrees Celsius for public forecast. Weather courtesy of forecast.io.

Closest aviation weather report (METAR) to Midden-Zeeland Airport

Closest report is Woensdrecht Air Base, 23.2 nm (42.9 km) E. Retrieved 2020/12/04 10:36 UTC (24 minutes ago):

EHWO 041036Z AUTO 20011G22KT 150V230 9999 BKN023 OVC026 07/02 Q0982 WHT TEMPO 18015G25KT

Closest aviation forecast (TAF) to Midden-Zeeland Airport

Closest forecast is Woensdrecht Air Base, 23.2 nm (42.9 km) E. Retrieved 2020/12/04 10:36 UTC (24 minutes ago):

TAF EHWO 040917Z 0410/0422 20015G25KT 9999 BKN025